createdAt,value
2019-03-06T00:00:47.288Z,98414.02
2019-03-06T00:03:15.998Z,98420.28
2019-03-06T00:05:44.877Z,98423.45
2019-03-06T00:08:13.587Z,98417.41
2019-03-06T00:10:42.304Z,98418.89
2019-03-06T00:13:11.117Z,98411.17
2019-03-06T00:15:39.833Z,98410.34
2019-03-06T00:18:08.586Z,98400.89
2019-03-06T00:20:37.331Z,98401.69
2019-03-06T00:23:06.042Z,98389.75
2019-03-06T00:25:34.762Z,98376.44
2019-03-06T00:28:03.476Z,98357.47
2019-03-06T00:30:35.246Z,98349.43
2019-03-06T00:33:03.957Z,98344.89
2019-03-06T00:35:36.999Z,98333.41
2019-03-06T00:38:05.710Z,98317.41
2019-03-06T00:40:48.425Z,98324.48
2019-03-06T00:43:17.137Z,98319.16
2019-03-06T00:45:45.838Z,98316.48
2019-03-06T00:48:14.587Z,98313.08
2019-03-06T00:50:43.471Z,98303.95
2019-03-06T00:53:12.180Z,98301.02
2019-03-06T00:55:40.884Z,98308.48
2019-03-06T00:58:09.700Z,98305.77
2019-03-06T01:00:38.480Z,98296.15
2019-03-06T01:03:07.265Z,98295.44
2019-03-06T01:05:36.077Z,98292.59
2019-03-06T01:08:04.918Z,98279.41
2019-03-06T01:10:33.741Z,98283.45
2019-03-06T01:13:02.513Z,98280.70
2019-03-06T01:15:31.248Z,98269.43
2019-03-06T01:17:59.976Z,98274.05
2019-03-06T01:20:28.704Z,98282.19
2019-03-06T01:22:57.440Z,98287.64
2019-03-06T01:25:26.200Z,98288.91
2019-03-06T01:27:54.924Z,98287.40
2019-03-06T01:30:25.709Z,98293.53
2019-03-06T01:33:05.181Z,98298.56
2019-03-06T01:35:35.459Z,98296.05
2019-03-06T01:38:21.996Z,98288.55
2019-03-06T01:40:52.275Z,98281.78
2019-03-06T01:43:35.439Z,98283.48
2019-03-06T01:46:04.249Z,98280.31
2019-03-06T01:48:34.829Z,98280.45
2019-03-06T01:51:03.542Z,98279.11
2019-03-06T01:53:32.251Z,98294.36
2019-03-06T01:56:00.979Z,98298.02
2019-03-06T01:58:29.691Z,98312.19
2019-03-06T02:00:58.413Z,98311.69
2019-03-06T02:03:27.126Z,98315.44
2019-03-06T02:05:56.140Z,98314.12
2019-03-06T02:08:24.862Z,98313.55
2019-03-06T02:10:53.617Z,98315.63
2019-03-06T02:13:25.081Z,98320.39
2019-03-06T02:15:53.790Z,98321.39
2019-03-06T02:18:22.546Z,98314.52
2019-03-06T02:20:51.255Z,98321.38
2019-03-06T02:23:19.979Z,98310.33
2019-03-06T02:25:48.746Z,98315.28
2019-03-06T02:28:17.450Z,98318.69
2019-03-06T02:30:46.162Z,98317.80
2019-03-06T02:33:14.890Z,98316.00
2019-03-06T02:35:43.610Z,98320.23
2019-03-06T02:38:12.356Z,98313.94
2019-03-06T02:40:41.089Z,98311.41
2019-03-06T02:43:09.799Z,98314.00
2019-03-06T02:45:38.630Z,98320.64
2019-03-06T02:48:07.613Z,98320.50
2019-03-06T02:50:36.365Z,98311.96
2019-03-06T02:53:05.173Z,98303.34
2019-03-06T02:55:33.890Z,98301.41
2019-03-06T02:58:07.090Z,98303.02
2019-03-06T03:00:37.548Z,98305.55
2019-03-06T03:03:24.230Z,98308.99
2019-03-06T03:06:06.705Z,98309.87
2019-03-06T03:08:35.451Z,98314.23
2019-03-06T03:11:04.271Z,98311.80
2019-03-06T03:13:37.382Z,98312.64
2019-03-06T03:16:06.088Z,98309.91
2019-03-06T03:18:34.837Z,98315.17
2019-03-06T03:21:03.549Z,98317.85
2019-03-06T03:23:32.259Z,98322.27
2019-03-06T03:26:00.982Z,98327.95
2019-03-06T03:28:29.703Z,98324.75
2019-03-06T03:30:58.459Z,98328.50
2019-03-06T03:33:27.245Z,98323.39
2019-03-06T03:35:55.957Z,98329.66
2019-03-06T03:38:24.681Z,98327.80
2019-03-06T03:40:53.398Z,98324.26
2019-03-06T03:43:22.164Z,98331.95
2019-03-06T03:45:51.152Z,98327.63
2019-03-06T03:48:19.858Z,98321.88
2019-03-06T03:50:48.573Z,98322.97
2019-03-06T03:53:17.281Z,98327.53
2019-03-06T03:55:46.034Z,98327.48
2019-03-06T03:58:14.834Z,98331.08
2019-03-06T04:00:43.645Z,98338.09
2019-03-06T04:03:12.375Z,98345.44
2019-03-06T04:05:41.072Z,98349.98
2019-03-06T04:08:09.817Z,98346.50
2019-03-06T04:10:38.524Z,98353.17
2019-03-06T04:13:07.415Z,98355.42
2019-03-06T04:15:36.132Z,98357.59
2019-03-06T04:18:04.847Z,98361.84
2019-03-06T04:20:34.863Z,98359.27
2019-03-06T04:23:03.572Z,98359.91
2019-03-06T04:25:32.660Z,98358.62
2019-03-06T04:28:01.384Z,98360.04
2019-03-06T04:30:30.086Z,98358.46
2019-03-06T04:32:58.840Z,98361.33
2019-03-06T04:35:27.555Z,98358.62
2019-03-06T04:37:56.263Z,98359.27
2019-03-06T04:40:24.989Z,98359.59
2019-03-06T04:42:53.719Z,98365.24
2019-03-06T04:45:22.498Z,98367.50
2019-03-06T04:47:51.221Z,98368.94
2019-03-06T04:50:19.958Z,98365.40
2019-03-06T04:52:48.682Z,98365.67
2019-03-06T04:55:17.403Z,98364.59
2019-03-06T04:57:46.182Z,98371.38
2019-03-06T05:00:16.106Z,98370.23
2019-03-06T05:02:44.849Z,98377.64
2019-03-06T05:05:13.568Z,98367.12
2019-03-06T05:07:42.290Z,98379.02
2019-03-06T05:10:14.932Z,98378.27
2019-03-06T05:12:43.656Z,98373.55
2019-03-06T05:15:17.601Z,98376.02
2019-03-06T05:18:04.004Z,98379.20
2019-03-06T05:20:32.726Z,98383.55
2019-03-06T05:23:01.485Z,98392.06
2019-03-06T05:25:30.364Z,98388.88
2019-03-06T05:27:59.082Z,98389.12
2019-03-06T05:30:29.362Z,98394.04
2019-03-06T05:33:04.235Z,98405.91
2019-03-06T05:35:50.924Z,98413.21
2019-03-06T05:38:48.223Z,98424.78
2019-03-06T05:41:17.127Z,98430.91
2019-03-06T05:43:45.850Z,98438.24
2019-03-06T05:46:14.602Z,98434.12
2019-03-06T05:48:43.321Z,98443.91
2019-03-06T05:51:12.036Z,98441.38
2019-03-06T05:53:40.981Z,98446.35
2019-03-06T05:56:09.701Z,98451.02
2019-03-06T05:58:38.472Z,98449.19
2019-03-06T06:01:07.188Z,98449.13
2019-03-06T06:03:35.905Z,98461.91
2019-03-06T06:06:04.842Z,98452.65
2019-03-06T06:08:33.550Z,98451.97
2019-03-06T06:11:02.272Z,98450.30
2019-03-06T06:13:31.205Z,98441.27
2019-03-06T06:15:59.931Z,98441.24
2019-03-06T06:18:28.940Z,98433.55
2019-03-06T06:21:05.084Z,98436.12
2019-03-06T06:23:47.528Z,98440.98
2019-03-06T06:26:16.351Z,98440.36
2019-03-06T06:28:45.096Z,98442.15
2019-03-06T06:31:13.809Z,98450.70
2019-03-06T06:33:42.545Z,98470.88
2019-03-06T06:36:11.257Z,98463.63
2019-03-06T06:38:39.970Z,98456.97
2019-03-06T06:41:08.682Z,98470.08
2019-03-06T06:43:37.434Z,98466.61
2019-03-06T06:46:07.627Z,98469.20
2019-03-06T06:48:37.484Z,98481.57
2019-03-06T06:51:15.264Z,98490.09
2019-03-06T06:53:46.889Z,98501.42
2019-03-06T06:56:26.784Z,98502.91
2019-03-06T06:58:58.410Z,98502.37
2019-03-06T07:01:55.718Z,98506.13
2019-03-06T07:04:34.439Z,98507.64
2019-03-06T07:07:20.978Z,98507.23
2019-03-06T07:09:57.200Z,98504.89
2019-03-06T07:12:27.521Z,98499.63
2019-03-06T07:14:57.807Z,98506.19
2019-03-06T07:17:28.089Z,98509.17
2019-03-06T07:20:01.111Z,98517.60
2019-03-06T07:22:34.369Z,98517.22
2019-03-06T07:25:04.689Z,98516.09
2019-03-06T07:27:43.983Z,98517.52
2019-03-06T07:30:23.640Z,98509.47
2019-03-06T07:32:59.647Z,98510.48
2019-03-06T07:35:50.094Z,98509.38
2019-03-06T07:38:18.797Z,98500.87
2019-03-06T07:40:58.455Z,98499.66
2019-03-06T07:43:31.886Z,98504.36
2019-03-06T07:46:05.914Z,98514.13
2019-03-06T07:48:39.689Z,98507.45
2019-03-06T07:51:15.823Z,98506.28
2019-03-06T07:54:09.007Z,98492.09
2019-03-06T07:56:46.547Z,98495.73
2019-03-06T07:59:15.259Z,98492.70
2019-03-06T08:02:11.679Z,98488.27
2019-03-06T08:04:41.840Z,98493.03
2019-03-06T08:07:14.480Z,98496.48
2019-03-06T08:09:43.211Z,98492.19
2019-03-06T08:12:13.502Z,98500.39
2019-03-06T08:15:02.238Z,98497.30
2019-03-06T08:17:38.810Z,98503.00
2019-03-06T08:20:21.813Z,98502.22
2019-03-06T08:22:58.121Z,98511.91
2019-03-06T08:25:31.019Z,98514.52
2019-03-06T08:27:59.731Z,98514.91
2019-03-06T08:30:30.034Z,98514.39
2019-03-06T08:32:58.755Z,98520.02
2019-03-06T08:35:27.474Z,98522.22
2019-03-06T08:37:56.366Z,98527.87
2019-03-06T08:40:25.093Z,98529.36
2019-03-06T08:42:53.816Z,98529.87
2019-03-06T08:45:26.654Z,98534.16
2019-03-06T08:47:56.940Z,98542.25
2019-03-06T08:50:27.223Z,98542.12
2019-03-06T08:53:03.742Z,98546.93
2019-03-06T08:55:34.023Z,98550.30
2019-03-06T08:58:04.343Z,98546.10
2019-03-06T09:00:51.133Z,98541.19
2019-03-06T09:03:39.601Z,98548.54
2019-03-06T09:06:10.477Z,98549.16
2019-03-06T09:08:56.869Z,98545.31
2019-03-06T09:11:27.153Z,98549.28
2019-03-06T09:14:00.341Z,98537.11
2019-03-06T09:16:30.639Z,98535.80
2019-03-06T09:19:00.919Z,98550.22
2019-03-06T09:21:31.249Z,98547.61
2019-03-06T09:24:01.541Z,98559.74
2019-03-06T09:26:31.828Z,98554.87
2019-03-06T09:29:17.076Z,98551.31
2019-03-06T09:31:50.244Z,98561.27
2019-03-06T09:34:20.536Z,98558.73
2019-03-06T09:37:03.081Z,98561.45
2019-03-06T09:39:49.527Z,98556.70
2019-03-06T09:42:19.813Z,98558.48
2019-03-06T09:44:56.249Z,98555.45
2019-03-06T09:47:26.538Z,98562.86
2019-03-06T09:49:56.864Z,98562.87
2019-03-06T09:52:45.442Z,98556.34
2019-03-06T09:55:15.781Z,98558.90
2019-03-06T09:57:55.298Z,98557.00
2019-03-06T10:00:28.539Z,98561.25
2019-03-06T10:02:58.819Z,98557.91
2019-03-06T10:05:29.147Z,98558.30
2019-03-06T10:07:59.436Z,98566.14
2019-03-06T10:10:29.714Z,98574.53
2019-03-06T10:13:00.012Z,98567.32
2019-03-06T10:15:30.306Z,98570.02
2019-03-06T10:18:09.654Z,98567.39
2019-03-06T10:20:38.372Z,98563.02
2019-03-06T10:23:08.390Z,98560.00
2019-03-06T10:25:37.291Z,98560.45
2019-03-06T10:28:06.986Z,98566.95
2019-03-06T10:30:35.857Z,98559.53
2019-03-06T10:33:04.774Z,98553.41
2019-03-06T10:35:35.778Z,98555.59
2019-03-06T10:38:04.494Z,98557.34
2019-03-06T10:40:35.110Z,98554.66
2019-03-06T10:43:04.093Z,98557.25
2019-03-06T10:45:41.362Z,98545.99
2019-03-06T10:48:05.770Z,98553.86
2019-03-06T10:50:34.470Z,98554.72
2019-03-06T10:53:03.184Z,98548.64
2019-03-06T10:55:32.201Z,98547.28
2019-03-06T10:58:01.135Z,98547.27
2019-03-06T11:00:37.732Z,98541.55
2019-03-06T11:03:07.077Z,98539.77
2019-03-06T11:05:36.491Z,98527.06
2019-03-06T11:08:07.009Z,98531.00
2019-03-06T11:10:36.137Z,98531.09
2019-03-06T11:13:08.570Z,98523.70
2019-03-06T11:15:37.720Z,98526.78
2019-03-06T11:18:06.737Z,98528.95
2019-03-06T11:20:36.645Z,98519.36
2019-03-06T11:23:10.469Z,98510.19
2019-03-06T11:25:40.876Z,98515.28
2019-03-06T11:28:12.038Z,98519.59
2019-03-06T11:30:52.841Z,98512.27
2019-03-06T11:33:23.473Z,98518.82
2019-03-06T11:35:55.773Z,98512.38
2019-03-06T11:38:25.384Z,98514.13
2019-03-06T11:40:54.293Z,98510.13
2019-03-06T11:43:22.997Z,98506.66
2019-03-06T11:45:51.726Z,98515.07
2019-03-06T11:48:20.636Z,98512.44
2019-03-06T11:50:49.352Z,98505.02
2019-03-06T11:53:18.050Z,98511.12
2019-03-06T11:55:46.797Z,98509.78
2019-03-06T11:58:19.023Z,98506.76
2019-03-06T12:00:48.237Z,98506.76
2019-03-06T12:03:20.543Z,98501.53
2019-03-06T12:05:49.964Z,98497.16
2019-03-06T12:08:20.668Z,98496.30
2019-03-06T12:10:50.573Z,98498.02
2019-03-06T12:13:19.518Z,98494.88
2019-03-06T12:15:52.342Z,98489.15
2019-03-06T12:18:23.247Z,98484.81
2019-03-06T12:20:52.961Z,98483.87
2019-03-06T12:23:21.776Z,98483.75
2019-03-06T12:25:50.639Z,98484.56
2019-03-06T12:28:19.352Z,98488.95
2019-03-06T12:30:48.564Z,98490.22
2019-03-06T12:33:23.007Z,98474.45
2019-03-06T12:35:51.922Z,98480.45
2019-03-06T12:38:20.780Z,98484.91
2019-03-06T12:40:49.592Z,98488.95
2019-03-06T12:43:18.298Z,98491.68
2019-03-06T12:46:22.877Z,98487.75
2019-03-06T12:48:48.533Z,98484.72
2019-03-06T12:51:17.259Z,98489.17
2019-03-06T12:53:46.229Z,98488.31
2019-03-06T12:56:14.938Z,98480.86
2019-03-06T12:58:43.640Z,98486.50
2019-03-06T13:01:12.417Z,98493.13
2019-03-06T13:03:41.136Z,98492.19
2019-03-06T13:06:09.835Z,98497.81
2019-03-06T13:08:38.622Z,98501.34
2019-03-06T13:11:07.429Z,98498.23
2019-03-06T13:13:36.145Z,98483.81
2019-03-06T13:16:05.156Z,98478.52
2019-03-06T13:18:36.058Z,98490.64
2019-03-06T13:21:07.559Z,98480.98
2019-03-06T13:23:36.562Z,98477.98
2019-03-06T13:26:10.315Z,98479.55
2019-03-06T13:28:35.899Z,98468.15
2019-03-06T13:31:04.745Z,98462.52
2019-03-06T13:33:35.024Z,98469.02
2019-03-06T13:36:03.834Z,98465.49
2019-03-06T13:38:37.937Z,98465.94
2019-03-06T13:41:06.651Z,98476.86
2019-03-06T13:43:38.068Z,98467.89
2019-03-06T13:46:06.779Z,98470.17
2019-03-06T13:48:35.488Z,98472.38
2019-03-06T13:51:04.880Z,98476.73
2019-03-06T13:53:33.582Z,98482.47
2019-03-06T13:56:02.430Z,98478.95
2019-03-06T13:58:31.136Z,98482.81
2019-03-06T14:00:59.844Z,98488.08
2019-03-06T14:03:28.565Z,98482.85
2019-03-06T14:05:57.544Z,98483.24
2019-03-06T14:08:26.284Z,98484.52
2019-03-06T14:10:55.002Z,98479.32
2019-03-06T14:13:23.707Z,98484.46
2019-03-06T14:15:54.102Z,98479.29
2019-03-06T14:18:23.320Z,98487.13
2019-03-06T14:20:52.259Z,98482.77
2019-03-06T14:23:20.969Z,98489.64
2019-03-06T14:25:49.675Z,98484.45
2019-03-06T14:28:18.394Z,98484.89
2019-03-06T14:30:47.206Z,98487.97
2019-03-06T14:33:15.970Z,98484.92
2019-03-06T14:35:44.951Z,98488.41
2019-03-06T14:38:13.651Z,98480.11
2019-03-06T14:40:42.661Z,98479.23
2019-03-06T14:43:11.480Z,98480.12
2019-03-06T14:45:40.255Z,98484.05
2019-03-06T14:48:09.056Z,98485.33
2019-03-06T14:50:37.760Z,98486.22
2019-03-06T14:53:07.286Z,98492.34
2019-03-06T14:55:37.092Z,98488.86
2019-03-06T14:58:05.839Z,98486.70
2019-03-06T15:00:34.548Z,98500.25
2019-03-06T15:03:03.248Z,98496.33
2019-03-06T15:05:31.965Z,98505.97
2019-03-06T15:08:00.766Z,98509.02
2019-03-06T15:10:29.834Z,98509.94
2019-03-06T15:12:58.543Z,98514.32
2019-03-06T15:15:27.251Z,98499.94
2019-03-06T15:17:55.958Z,98518.72
2019-03-06T15:20:28.662Z,98527.45
2019-03-06T15:22:58.487Z,98530.55
2019-03-06T15:25:28.603Z,98539.70
2019-03-06T15:27:57.320Z,98535.39
2019-03-06T15:30:26.246Z,98540.63
2019-03-06T15:32:54.960Z,98541.94
2019-03-06T15:35:23.886Z,98539.36
2019-03-06T15:37:52.788Z,98542.47
2019-03-06T15:40:28.298Z,98545.09
2019-03-06T15:42:57.166Z,98544.28
2019-03-06T15:45:27.469Z,98546.02
2019-03-06T15:47:56.364Z,98547.32
2019-03-06T15:50:25.476Z,98557.37
2019-03-06T15:52:54.265Z,98555.17
2019-03-06T15:55:29.946Z,98558.24
2019-03-06T15:57:59.018Z,98563.47
2019-03-06T16:00:45.433Z,98563.02
2019-03-06T16:03:12.329Z,98567.35
2019-03-06T16:05:41.921Z,98567.75
2019-03-06T16:08:12.630Z,98579.02
2019-03-06T16:10:42.148Z,98583.31
2019-03-06T16:13:10.948Z,98585.02
2019-03-06T16:15:39.698Z,98590.61
2019-03-06T16:18:09.747Z,98596.23
2019-03-06T16:20:38.965Z,98582.64
2019-03-06T16:23:08.126Z,98605.66
2019-03-06T16:25:39.844Z,98609.97
2019-03-06T16:28:07.701Z,98607.27
2019-03-06T16:30:37.998Z,98614.36
2019-03-06T16:33:06.802Z,98620.14
2019-03-06T16:35:36.164Z,98616.46
2019-03-06T16:38:04.880Z,98622.86
2019-03-06T16:40:36.816Z,98628.04
2019-03-06T16:43:05.888Z,98631.45
2019-03-06T16:45:34.666Z,98638.45
2019-03-06T16:48:04.669Z,98642.27
2019-03-06T16:50:33.372Z,98644.73
2019-03-06T16:53:02.314Z,98647.59
2019-03-06T16:55:31.141Z,98644.78
2019-03-06T16:58:00.257Z,98652.48
2019-03-06T17:00:35.505Z,98654.81
2019-03-06T17:03:05.721Z,98661.59
2019-03-06T17:05:34.477Z,98661.16
2019-03-06T17:08:03.696Z,98673.52
2019-03-06T17:10:33.809Z,98679.63
2019-03-06T17:13:03.035Z,98683.16
2019-03-06T17:15:35.536Z,98691.20
2019-03-06T17:18:04.701Z,98695.22
2019-03-06T17:20:35.103Z,98698.84
2019-03-06T17:23:04.419Z,98704.61
2019-03-06T17:25:36.434Z,98713.84
2019-03-06T17:28:05.455Z,98709.85
2019-03-06T17:30:36.259Z,98706.73
2019-03-06T17:33:08.154Z,98714.80
2019-03-06T17:35:37.672Z,98714.23
2019-03-06T17:38:09.088Z,98720.55
2019-03-06T17:40:37.923Z,98729.13
2019-03-06T17:43:07.167Z,98724.66
2019-03-06T17:45:36.292Z,98724.63
2019-03-06T17:48:06.006Z,98728.71
2019-03-06T17:50:35.654Z,98736.11
2019-03-06T17:53:04.469Z,98748.67
2019-03-06T17:55:35.702Z,98751.05
2019-03-06T17:58:04.822Z,98762.02
2019-03-06T18:00:35.487Z,98754.88
2019-03-06T18:03:04.304Z,98760.30
2019-03-06T18:05:33.028Z,98760.57
2019-03-06T18:08:01.801Z,98767.44
2019-03-06T18:10:30.623Z,98764.61
2019-03-06T18:12:59.335Z,98758.63
2019-03-06T18:15:28.339Z,98765.66
2019-03-06T18:17:57.053Z,98770.18
2019-03-06T18:20:25.858Z,98776.41
2019-03-06T18:22:55.353Z,98781.45
2019-03-06T18:25:25.618Z,98777.88
2019-03-06T18:27:54.417Z,98781.97
2019-03-06T18:30:23.593Z,98782.48
2019-03-06T18:32:52.347Z,98775.72
2019-03-06T18:35:22.267Z,98779.81
2019-03-06T18:37:51.182Z,98776.54
2019-03-06T18:40:24.401Z,98778.86
2019-03-06T18:42:54.926Z,98774.66
2019-03-06T18:45:23.860Z,98778.92
2019-03-06T18:47:52.568Z,98780.21
2019-03-06T18:50:23.324Z,98781.34
2019-03-06T18:52:52.462Z,98783.02
2019-03-06T18:55:21.688Z,98779.13
2019-03-06T18:57:50.443Z,98779.13
2019-03-06T19:00:23.382Z,98779.98
2019-03-06T19:02:52.407Z,98778.77
2019-03-06T19:05:21.493Z,98781.15
2019-03-06T19:07:51.326Z,98785.89
2019-03-06T19:10:21.042Z,98793.41
2019-03-06T19:12:50.014Z,98792.38
2019-03-06T19:15:26.208Z,98793.88
2019-03-06T19:17:55.057Z,98788.14
2019-03-06T19:20:24.395Z,98796.70
2019-03-06T19:22:53.826Z,98798.33
2019-03-06T19:25:22.915Z,98801.95
2019-03-06T19:27:51.645Z,98804.37
2019-03-06T19:30:24.259Z,98810.11
2019-03-06T19:32:53.140Z,98811.81
2019-03-06T19:35:23.363Z,98811.55
2019-03-06T19:37:52.074Z,98813.22
2019-03-06T19:40:20.941Z,98814.81
2019-03-06T19:42:49.653Z,98821.22
2019-03-06T19:45:26.586Z,98826.98
2019-03-06T19:47:55.300Z,98832.61
2019-03-06T19:50:26.018Z,98828.38
2019-03-06T19:52:56.315Z,98832.91
2019-03-06T19:55:26.527Z,98831.40
2019-03-06T19:57:58.165Z,98824.86
2019-03-06T20:00:29.602Z,98826.41
2019-03-06T20:02:58.773Z,98824.77
2019-03-06T20:05:34.553Z,98827.77
2019-03-06T20:08:04.713Z,98824.45
2019-03-06T20:10:33.428Z,98822.02
2019-03-06T20:13:02.248Z,98827.73
2019-03-06T20:15:31.000Z,98824.62
2019-03-06T20:17:59.814Z,98823.88
2019-03-06T20:20:28.545Z,98825.17
2019-03-06T20:22:57.800Z,98826.81
2019-03-06T20:25:26.611Z,98828.28
2019-03-06T20:27:55.324Z,98838.75
2019-03-06T20:30:25.612Z,98837.78
2019-03-06T20:32:54.547Z,98846.20
2019-03-06T20:35:25.404Z,98849.48
2019-03-06T20:37:54.270Z,98849.69
2019-03-06T20:40:23.285Z,98851.19
2019-03-06T20:42:51.993Z,98851.42
2019-03-06T20:45:20.967Z,98864.22
2019-03-06T20:47:49.783Z,98859.60
2019-03-06T20:50:19.602Z,98864.78
2019-03-06T20:52:50.206Z,98866.84
2019-03-06T20:55:18.811Z,98862.12
2019-03-06T20:57:47.550Z,98860.34
2019-03-06T21:00:22.165Z,98856.19
2019-03-06T21:02:50.888Z,98859.88
2019-03-06T21:05:19.605Z,98860.24
2019-03-06T21:07:48.473Z,98852.80
2019-03-06T21:10:18.185Z,98858.02
2019-03-06T21:12:46.920Z,98857.01
2019-03-06T21:15:18.312Z,98848.91
2019-03-06T21:17:47.026Z,98849.20
2019-03-06T21:20:17.436Z,98851.70
2019-03-06T21:22:46.195Z,98851.10
2019-03-06T21:25:17.158Z,98845.11
2019-03-06T21:27:45.862Z,98843.70
2019-03-06T21:30:21.389Z,98844.30
2019-03-06T21:32:50.109Z,98852.39
2019-03-06T21:35:18.822Z,98849.72
2019-03-06T21:37:47.588Z,98856.11
2019-03-06T21:40:16.495Z,98846.37
2019-03-06T21:42:45.380Z,98847.50
2019-03-06T21:45:14.946Z,98843.70
2019-03-06T21:47:43.654Z,98840.70
2019-03-06T21:50:17.154Z,98842.97
2019-03-06T21:52:45.918Z,98837.51
2019-03-06T21:55:15.511Z,98838.28
2019-03-06T21:57:44.603Z,98835.89
2019-03-06T22:00:23.294Z,98825.45
2019-03-06T22:02:52.094Z,98832.84
2019-03-06T22:05:20.815Z,98840.09
2019-03-06T22:07:50.718Z,98840.09
2019-03-06T22:10:20.125Z,98844.71
2019-03-06T22:12:48.828Z,98847.09
2019-03-06T22:15:19.180Z,98850.64
2019-03-06T22:17:47.896Z,98854.51
2019-03-06T22:20:17.818Z,98858.03
2019-03-06T22:22:46.665Z,98869.11
2019-03-06T22:25:17.272Z,98867.94
2019-03-06T22:27:46.029Z,98875.83
2019-03-06T22:30:17.287Z,98883.47
2019-03-06T22:32:45.993Z,98881.86
2019-03-06T22:35:15.002Z,98889.94
2019-03-06T22:37:43.747Z,98882.60
2019-03-06T22:40:15.052Z,98878.47
2019-03-06T22:42:43.753Z,98881.46
2019-03-06T22:45:16.945Z,98873.03
2019-03-06T22:47:45.650Z,98870.27
2019-03-06T22:50:15.552Z,98876.48
2019-03-06T22:52:44.419Z,98876.66
2019-03-06T22:55:17.663Z,98873.89
2019-03-06T22:57:46.371Z,98872.77
2019-03-06T23:00:30.300Z,98877.69
2019-03-06T23:02:59.226Z,98883.53
2019-03-06T23:05:29.791Z,98883.08
2019-03-06T23:07:58.556Z,98882.50
2019-03-06T23:10:27.265Z,98893.16
2019-03-06T23:12:55.961Z,98891.69
2019-03-06T23:15:24.706Z,98890.92
2019-03-06T23:17:53.415Z,98892.48
2019-03-06T23:20:22.121Z,98893.78
2019-03-06T23:22:50.876Z,98901.61
2019-03-06T23:25:19.763Z,98903.63
2019-03-06T23:27:48.471Z,98914.92
2019-03-06T23:30:17.728Z,98922.94
2019-03-06T23:32:46.714Z,98936.42
2019-03-06T23:35:15.422Z,98940.91
2019-03-06T23:37:44.175Z,98948.55
2019-03-06T23:40:12.985Z,98954.31
2019-03-06T23:42:41.793Z,98956.28
2019-03-06T23:45:14.236Z,98963.34
2019-03-06T23:47:43.126Z,98969.85
2019-03-06T23:50:13.127Z,98960.09
2019-03-06T23:52:59.419Z,98958.31
2019-03-06T23:55:29.691Z,98953.43
2019-03-06T23:57:58.586Z,98940.75
